Terminal Aerodrome Forecast
Issued by NWS Topeka, KS

Home | Current Version | Previous Version | Graphics & Text | Print | Product List | Glossary On
Versions: 1 2 3 4 5 6 7 8 9 10 11 12 13 14 15 16 17 18 19 20 21 22
000
FTUS43 KTOP 281800 AAA
TAFTOP
TAF AMD
KTOP 281856Z 2819/2918 15010KT P6SM SCT016 BKN100
      TEMPO 2819/2822 P6SM -SHRA BKN016
     FM291200 17009KT P6SM VCTS BKN040CB=

USA.gov is the U.S. government's official web portal to all federal, state and local government web resources and services.